Time;durP1;ratioP1;P1;durP2;ratioP2;P2;SDS_P1;SDS_P2;PMS_P1;PMS_P2;Temp;Humidity;BMP_temperature;BMP_pressure;BME280_temperature;BME280_humidity;BME280_pressure;Samples;Min_cycle;Max_cycle;Signal;HPM_P1;HPM_P2
2022/04/11 00:00:27;;;;;;;0.10;0.10;;;9.60;1.00;;;;;;5074722;28;20041;-74
2022/04/11 00:02:53;;;;;;;0.17;0.17;;;9.60;1.00;;;;;;5075214;28;20032;-74
2022/04/11 00:05:19;;;;;;;0.20;0.20;;;9.60;1.00;;;;;;5074800;28;20036;-74
2022/04/11 00:07:44;;;;;;;0.30;0.30;;;9.60;1.00;;;;;;5074721;28;20044;-75
2022/04/11 00:10:10;;;;;;;0.40;0.40;;;9.50;1.00;;;;;;5074945;28;20089;-74
2022/04/11 00:12:37;;;;;;;0.10;0.10;;;9.50;1.00;;;;;;5074935;28;20067;-74
2022/04/11 00:15:07;;;;;;;0.10;0.10;;;9.50;1.00;;;;;;5074929;28;20059;-74
2022/04/11 00:17:34;;;;;;;0.10;0.10;;;9.50;1.00;;;;;;5075096;28;20051;-74
2022/04/11 00:20:00;;;;;;;0.20;0.17;;;9.50;1.00;;;;;;5074845;28;20055;-74
2022/04/11 00:22:27;;;;;;;0.43;0.38;;;9.40;1.00;;;;;;5075103;28;20116;-74
2022/04/11 00:24:53;;;;;;;0.45;0.45;;;9.40;1.00;;;;;;5074609;28;20426;-74
2022/04/11 00:27:19;;;;;;;0.20;0.20;;;9.30;1.00;;;;;;5075320;28;20040;-74
2022/04/11 00:29:45;;;;;;;0.00;0.00;;;9.40;1.00;;;;;;5074831;28;20506;-74
2022/04/11 00:32:11;;;;;;;0.10;0.10;;;9.30;1.00;;;;;;5074899;28;20039;-74
2022/04/11 00:34:37;;;;;;;0.65;0.65;;;9.30;1.00;;;;;;5074568;28;20059;-74
2022/04/11 00:37:03;;;;;;;0.10;0.10;;;9.20;1.00;;;;;;5075368;28;20036;-74
2022/04/11 00:39:29;;;;;;;0.17;0.17;;;9.20;1.00;;;;;;5074840;28;20511;-74
2022/04/11 00:41:54;;;;;;;0.10;0.10;;;9.10;1.00;;;;;;5075020;28;20071;-74
2022/04/11 00:44:20;;;;;;;0.10;0.10;;;9.10;1.00;;;;;;5075034;28;20059;-74
2022/04/11 00:46:46;;;;;;;0.17;0.17;;;9.00;1.00;;;;;;5075066;28;20068;-74
2022/04/11 00:49:12;;;;;;;0.50;0.50;;;9.00;1.00;;;;;;5074863;28;20041;-74
2022/04/11 00:51:39;;;;;;;0.30;0.30;;;8.90;12.20;;;;;;5075044;28;20363;-74
2022/04/11 00:54:07;;;;;;;0.22;0.22;;;9.00;7.30;;;;;;5074144;28;20039;-74
2022/04/11 00:56:35;;;;;;;0.20;0.20;;;8.90;15.80;;;;;;5074947;28;20118;-74
2022/04/11 00:59:02;;;;;;;0.15;0.15;;;8.80;23.20;;;;;;5074473;28;20052;-74
2022/04/11 01:01:28;;;;;;;0.85;0.25;;;8.90;39.10;;;;;;5074723;28;20094;-75
2022/04/11 01:03:54;;;;;;;0.10;0.10;;;8.90;39.70;;;;;;5073816;28;20379;-74
2022/04/11 01:06:20;;;;;;;0.30;0.30;;;8.80;49.30;;;;;;5074637;28;20048;-74
2022/04/11 01:08:46;;;;;;;0.30;0.30;;;8.80;61.80;;;;;;5074888;28;20486;-74
2022/04/11 01:11:12;;;;;;;0.00;0.00;;;8.80;65.90;;;;;;5077906;28;20372;-74
2022/04/11 01:13:41;;;;;;;0.10;0.10;;;8.80;70.60;;;;;;5078721;28;20040;-75
2022/04/11 01:16:06;;;;;;;0.28;0.28;;;8.80;79.50;;;;;;5077998;28;20071;-74
2022/04/11 01:18:36;;;;;;;0.10;0.10;;;8.70;83.20;;;;;;5077914;28;20083;-74
2022/04/11 01:21:03;;;;;;;0.10;0.10;;;8.80;86.80;;;;;;5078227;28;20032;-74
2022/04/11 01:23:29;;;;;;;0.20;0.20;;;8.80;91.10;;;;;;5078157;28;20127;-74
2022/04/11 01:25:56;;;;;;;0.15;0.15;;;8.80;87.90;;;;;;5078065;28;20075;-74
2022/04/11 01:28:23;;;;;;;0.10;0.10;;;8.80;93.20;;;;;;5077774;28;20196;-74
2022/04/11 01:30:56;;;;;;;0.10;0.10;;;8.80;93.90;;;;;;5077715;28;20036;-74
2022/04/11 01:33:27;;;;;;;0.10;0.10;;;8.80;94.40;;;;;;5077957;28;20483;-74
2022/04/11 01:35:53;;;;;;;0.10;0.10;;;8.80;95.00;;;;;;5077967;28;20037;-74
2022/04/11 01:38:19;;;;;;;0.03;0.03;;;8.90;97.80;;;;;;5077467;28;20044;-75
2022/04/11 01:40:53;;;;;;;0.55;0.20;;;8.90;97.90;;;;;;5077470;28;20400;-74
2022/04/11 01:43:19;;;;;;;0.20;0.20;;;8.90;98.60;;;;;;5077564;28;20036;-74
2022/04/11 01:45:45;;;;;;;0.20;0.20;;;8.90;95.20;;;;;;5078051;28;20041;-74
2022/04/11 01:48:11;;;;;;;1.85;0.32;;;8.90;94.70;;;;;;5077651;28;20052;-74
2022/04/11 01:50:37;;;;;;;0.10;0.10;;;8.90;98.30;;;;;;5077268;28;20032;-74
2022/04/11 01:53:10;;;;;;;0.10;0.10;;;9.00;99.20;;;;;;5077575;28;20040;-74
2022/04/11 01:55:37;;;;;;;0.93;0.22;;;8.90;97.00;;;;;;5077566;28;20045;-74
2022/04/11 01:58:04;;;;;;;0.10;0.10;;;8.90;97.50;;;;;;5077398;28;20048;-74
2022/04/11 02:00:30;;;;;;;0.10;0.10;;;8.90;99.90;;;;;;5077000;28;20040;-74
2022/04/11 02:02:58;;;;;;;0.10;0.10;;;9.00;99.90;;;;;;5077642;28;20046;-74
2022/04/11 02:05:24;;;;;;;0.30;0.30;;;9.00;96.50;;;;;;5077109;28;20511;-74
2022/04/11 02:07:50;;;;;;;0.30;0.30;;;9.00;99.40;;;;;;5077051;28;20054;-74
2022/04/11 02:10:16;;;;;;;0.10;0.10;;;9.10;99.90;;;;;;5077153;28;20123;-74
2022/04/11 02:12:42;;;;;;;0.10;0.10;;;9.10;99.40;;;;;;5077219;28;20119;-74
2022/04/11 02:15:09;;;;;;;0.13;0.13;;;9.10;99.90;;;;;;5076557;28;20048;-74
2022/04/11 02:17:35;;;;;;;0.47;0.47;;;9.10;97.10;;;;;;5077298;28;20109;-74
2022/04/11 02:20:01;;;;;;;0.28;0.28;;;9.20;99.90;;;;;;5077062;28;20507;-74
2022/04/11 02:22:27;;;;;;;0.10;0.10;;;9.20;99.90;;;;;;5076189;28;20039;-74
2022/04/11 02:24:52;;;;;;;0.10;0.10;;;9.20;99.80;;;;;;5077272;28;20040;-74
2022/04/11 02:27:18;;;;;;;0.10;0.10;;;9.20;99.90;;;;;;5077003;28;20178;-74
2022/04/11 02:29:44;;;;;;;0.47;0.47;;;9.30;99.90;;;;;;5076755;28;20047;-75
2022/04/11 02:32:10;;;;;;;0.20;0.20;;;9.40;99.90;;;;;;5076616;28;20043;-74
2022/04/11 02:34:36;;;;;;;0.20;0.20;;;9.40;96.80;;;;;;5076940;28;20098;-74
2022/04/11 02:37:01;;;;;;;1.48;0.80;;;9.40;96.70;;;;;;5076863;28;20115;-74
2022/04/11 02:39:27;;;;;;;0.10;0.10;;;9.40;97.40;;;;;;5076850;28;20075;-74
2022/04/11 02:41:53;;;;;;;0.10;0.10;;;9.40;99.90;;;;;;5076998;28;20091;-74
2022/04/11 02:44:19;;;;;;;0.20;0.20;;;9.40;99.50;;;;;;5076753;28;20057;-74
2022/04/11 02:46:45;;;;;;;0.10;0.10;;;9.40;98.20;;;;;;5076563;28;20043;-74
2022/04/11 02:49:11;;;;;;;0.50;0.50;;;9.50;96.10;;;;;;5076922;28;20067;-74
2022/04/11 02:51:37;;;;;;;0.30;0.30;;;9.40;98.10;;;;;;5076323;28;20059;-74
2022/04/11 02:54:07;;;;;;;0.20;0.20;;;9.50;98.20;;;;;;5075406;28;20033;-74
2022/04/11 02:56:34;;;;;;;0.10;0.10;;;9.50;91.20;;;;;;5076379;28;20102;-74
2022/04/11 02:58:59;;;;;;;0.08;0.08;;;9.60;92.30;;;;;;5075638;28;20076;-74
2022/04/11 03:01:25;;;;;;;0.10;0.10;;;9.60;85.50;;;;;;5074919;28;20071;-74
2022/04/11 03:03:51;;;;;;;0.10;0.10;;;9.60;83.80;;;;;;5073629;28;20036;-74
2022/04/11 03:06:17;;;;;;;0.20;0.20;;;9.60;86.70;;;;;;5075980;28;20040;-74
2022/04/11 03:08:43;;;;;;;0.30;0.30;;;9.70;70.50;;;;;;5076186;28;20044;-74
2022/04/11 03:11:08;;;;;;;0.10;0.10;;;9.70;82.10;;;;;;5076130;28;20047;-74
2022/04/11 03:13:34;;;;;;;0.22;0.22;;;9.70;67.00;;;;;;5075602;28;20040;-74
2022/04/11 03:16:00;;;;;;;0.10;0.10;;;9.70;82.00;;;;;;5076440;28;20036;-75
2022/04/11 03:18:26;;;;;;;0.20;0.20;;;9.70;76.10;;;;;;5075924;28;20075;-74
2022/04/11 03:20:51;;;;;;;0.10;0.10;;;9.70;76.30;;;;;;5075929;28;20079;-74
2022/04/11 03:23:17;;;;;;;0.10;0.10;;;9.70;75.70;;;;;;5076033;28;20039;-74
2022/04/11 03:25:43;;;;;;;2.20;1.10;;;9.70;91.50;;;;;;5076113;28;20036;-74
2022/04/11 03:28:09;;;;;;;0.17;0.17;;;9.70;84.60;;;;;;5075252;28;20040;-74
2022/04/11 03:30:35;;;;;;;0.30;0.30;;;9.70;93.20;;;;;;5075011;28;20041;-74
2022/04/11 03:33:01;;;;;;;0.10;0.10;;;9.70;92.70;;;;;;5075678;28;20551;-74
2022/04/11 03:35:26;;;;;;;0.10;0.10;;;9.70;93.60;;;;;;5076013;28;20067;-74
2022/04/11 03:37:52;;;;;;;0.25;0.25;;;9.70;90.20;;;;;;5076354;28;20075;-74
2022/04/11 03:40:18;;;;;;;0.10;0.10;;;9.70;92.30;;;;;;5075406;28;20047;-74
2022/04/11 03:42:44;;;;;;;0.20;0.20;;;9.70;70.50;;;;;;5075178;28;20553;-75
2022/04/11 03:45:11;;;;;;;0.10;0.10;;;9.80;62.40;;;;;;5074973;28;20077;-74
2022/04/11 03:47:38;;;;;;;0.20;0.20;;;9.80;73.10;;;;;;5075350;28;20467;-74
2022/04/11 03:50:04;;;;;;;1.77;1.02;;;9.80;84.70;;;;;;5075270;28;20036;-74
2022/04/11 03:52:30;;;;;;;0.30;0.30;;;9.80;74.40;;;;;;5075785;28;20033;-74
2022/04/11 03:55:00;;;;;;;2.65;0.30;;;9.70;72.80;;;;;;5075211;28;20032;-74
2022/04/11 03:57:26;;;;;;;0.32;0.32;;;9.80;90.80;;;;;;5066978;28;20040;-74
2022/04/11 03:59:52;;;;;;;0.52;0.52;;;9.80;63.00;;;;;;5074606;28;20556;-74
2022/04/11 04:02:17;;;;;;;0.57;0.57;;;9.90;53.60;;;;;;5057392;28;20123;-74
2022/04/11 04:04:43;;;;;;;0.10;0.10;;;9.90;63.00;;;;;;5074535;28;20067;-74
2022/04/11 04:07:09;;;;;;;0.10;0.10;;;9.90;71.40;;;;;;5075201;28;20379;-74
2022/04/11 04:09:35;;;;;;;1.55;0.63;;;9.90;74.90;;;;;;5074602;28;20032;-74
2022/04/11 04:12:01;;;;;;;0.55;0.55;;;9.90;77.30;;;;;;5074147;28;20556;-74
2022/04/11 04:14:27;;;;;;;0.30;0.30;;;9.90;48.40;;;;;;5074882;28;20059;-74
2022/04/11 04:16:52;;;;;;;0.30;0.30;;;9.90;53.10;;;;;;5074468;28;20036;-74
2022/04/11 04:21:54;;;;;;;0.10;0.10;;;10.00;45.60;;;;;;5122863;22;20068;-74
2022/04/11 04:24:22;;;;;;;0.17;0.17;;;10.00;53.10;;;;;;5074415;28;20110;-74
2022/04/11 04:26:51;;;;;;;0.52;0.52;;;10.00;54.50;;;;;;5082555;28;20498;-71
2022/04/11 04:29:17;;;;;;;8.85;1.08;;;10.00;44.70;;;;;;5090106;28;20032;-74
2022/04/11 04:31:44;;;;;;;0.22;0.22;;;10.00;55.30;;;;;;5073622;28;20044;-74
2022/04/11 04:34:09;;;;;;;0.10;0.10;;;10.00;44.60;;;;;;5074509;28;20068;-74
2022/04/11 04:36:35;;;;;;;0.73;0.73;;;10.00;55.90;;;;;;5081854;28;20450;-73
2022/04/11 04:39:02;;;;;;;0.17;0.17;;;9.90;56.70;;;;;;5080029;28;20395;-71
2022/04/11 04:41:28;;;;;;;0.10;0.10;;;10.00;49.70;;;;;;5073172;28;20486;-72
2022/04/11 04:43:54;;;;;;;0.10;0.10;;;9.90;54.40;;;;;;5073285;28;20043;-72
2022/04/11 04:46:20;;;;;;;0.10;0.10;;;10.00;40.60;;;;;;5073286;28;20033;-72
2022/04/11 04:48:46;;;;;;;0.10;0.10;;;10.00;43.80;;;;;;5074669;28;20072;-72
2022/04/11 04:51:12;;;;;;;0.68;0.50;;;10.00;44.60;;;;;;5074599;28;20367;-72
2022/04/11 04:53:37;;;;;;;0.35;0.35;;;10.00;38.30;;;;;;5074239;28;20021;-72
2022/04/11 04:56:04;;;;;;;0.10;0.10;;;10.10;25.60;;;;;;5074430;28;20079;-72
2022/04/11 04:58:29;;;;;;;0.03;0.03;;;10.20;23.80;;;;;;5074207;28;20575;-72
2022/04/11 05:00:55;;;;;;;5.30;1.52;;;10.20;22.90;;;;;;5074871;28;20040;-72
2022/04/11 05:03:21;;;;;;;0.10;0.10;;;10.20;17.50;;;;;;5074346;28;20041;-72
2022/04/11 05:05:47;;;;;;;0.17;0.17;;;10.30;16.70;;;;;;5074127;28;20486;-72
2022/04/11 05:08:12;;;;;;;0.63;0.63;;;10.30;12.40;;;;;;5074292;28;20033;-72
2022/04/11 05:10:38;;;;;;;1.50;1.27;;;10.30;14.90;;;;;;5074766;28;20067;-72
2022/04/11 05:13:04;;;;;;;2.00;0.82;;;10.30;15.10;;;;;;5074993;28;20040;-72
2022/04/11 05:15:30;;;;;;;0.10;0.10;;;10.40;11.60;;;;;;5074487;28;20384;-72
2022/04/11 05:17:55;;;;;;;0.10;0.10;;;10.30;15.00;;;;;;5074181;28;20062;-72
2022/04/11 05:20:21;;;;;;;0.10;0.10;;;10.30;13.50;;;;;;5074301;28;20049;-72
2022/04/11 05:22:47;;;;;;;0.20;0.20;;;10.30;21.80;;;;;;5074437;28;20126;-71
2022/04/11 05:25:13;;;;;;;0.22;0.22;;;10.20;27.10;;;;;;5074171;28;20489;-72
2022/04/11 05:27:39;;;;;;;0.05;0.05;;;10.10;37.80;;;;;;5073850;28;20044;-72
2022/04/11 05:30:06;;;;;;;0.38;0.38;;;10.10;47.20;;;;;;5074726;28;20043;-72
2022/04/11 05:32:35;;;;;;;0.10;0.10;;;10.10;49.60;;;;;;5073772;28;20032;-72
2022/04/11 05:35:01;;;;;;;0.10;0.10;;;10.10;53.70;;;;;;5073886;28;20068;-71
2022/04/11 05:37:27;;;;;;;0.10;0.10;;;10.10;65.00;;;;;;5074003;28;20072;-72
2022/04/11 05:39:53;;;;;;;0.10;0.10;;;10.20;40.50;;;;;;5074180;28;20043;-72
2022/04/11 05:42:19;;;;;;;0.30;0.30;;;10.20;32.90;;;;;;5073973;28;20043;-72
2022/04/11 05:44:44;;;;;;;0.45;0.45;;;10.20;42.20;;;;;;5074166;28;20474;-72
2022/04/11 05:47:12;;;;;;;0.10;0.10;;;10.20;33.60;;;;;;5073925;28;20036;-72
2022/04/11 05:49:39;;;;;;;0.47;0.43;;;10.20;27.10;;;;;;5073595;28;20503;-72
2022/04/11 05:52:06;;;;;;;2.47;0.85;;;10.20;21.80;;;;;;5074175;28;20037;-72
2022/04/11 05:54:35;;;;;;;0.10;0.10;;;10.20;21.10;;;;;;5073849;28;20036;-72
2022/04/11 05:57:00;;;;;;;0.10;0.10;;;10.30;22.50;;;;;;5074731;28;20032;-71
2022/04/11 05:59:26;;;;;;;0.10;0.10;;;10.30;27.90;;;;;;5077107;28;20048;-72
2022/04/11 06:01:52;;;;;;;0.15;0.15;;;10.20;23.00;;;;;;5076294;28;20064;-72
2022/04/11 06:04:18;;;;;;;0.38;0.38;;;10.30;21.20;;;;;;5076820;28;20071;-71
2022/04/11 06:06:44;;;;;;;0.10;0.10;;;10.30;22.20;;;;;;5076964;28;20035;-72
2022/04/11 06:09:10;;;;;;;0.30;0.30;;;10.30;29.00;;;;;;5077129;28;20036;-71
2022/04/11 06:11:36;;;;;;;0.15;0.15;;;10.20;24.40;;;;;;5076417;28;20033;-71
2022/04/11 06:14:01;;;;;;;0.25;0.25;;;10.20;27.40;;;;;;5077257;28;20044;-71
2022/04/11 06:16:27;;;;;;;0.95;0.75;;;10.30;27.70;;;;;;5076125;28;20116;-71
2022/04/11 06:18:53;;;;;;;0.10;0.10;;;10.30;26.50;;;;;;5075881;28;20105;-71
2022/04/11 06:21:19;;;;;;;0.10;0.10;;;10.30;18.80;;;;;;5076814;28;20490;-71
2022/04/11 06:23:45;;;;;;;0.10;0.10;;;10.30;19.90;;;;;;5077315;28;20036;-71
2022/04/11 06:26:11;;;;;;;0.30;0.30;;;10.30;18.70;;;;;;5076968;28;20054;-71
2022/04/11 06:28:36;;;;;;;0.40;0.40;;;10.30;20.50;;;;;;5077030;28;20048;-71
2022/04/11 06:31:03;;;;;;;0.00;0.00;;;10.30;19.10;;;;;;5076262;28;20044;-71
2022/04/11 06:33:28;;;;;;;0.10;0.10;;;10.30;20.50;;;;;;5075718;28;20040;-71
2022/04/11 06:35:54;;;;;;;0.30;0.30;;;10.40;17.10;;;;;;5077027;28;20040;-71
2022/04/11 06:38:20;;;;;;;0.10;0.10;;;10.40;11.60;;;;;;5076100;28;20048;-71
2022/04/11 06:40:46;;;;;;;0.35;0.35;;;10.40;12.80;;;;;;5076368;28;20040;-71
2022/04/11 06:43:12;;;;;;;0.00;0.00;;;10.40;10.40;;;;;;5075821;28;20044;-71
2022/04/11 06:45:38;;;;;;;0.20;0.20;;;10.50;9.10;;;;;;5076275;28;20048;-71
2022/04/11 06:48:04;;;;;;;0.30;0.30;;;10.50;6.70;;;;;;5076225;28;20044;-71
2022/04/11 06:50:30;;;;;;;1.50;0.47;;;10.50;10.60;;;;;;5076286;28;20040;-71
2022/04/11 06:52:56;;;;;;;0.10;0.10;;;10.50;16.00;;;;;;5075565;28;20048;-71
2022/04/11 06:55:21;;;;;;;0.10;0.10;;;10.40;11.40;;;;;;5075539;28;20360;-71
2022/04/11 06:57:47;;;;;;;0.10;0.10;;;10.40;12.00;;;;;;5075443;28;20052;-71
2022/04/11 07:00:13;;;;;;;0.50;0.50;;;10.50;7.40;;;;;;5075623;28;20119;-71
2022/04/11 07:02:39;;;;;;;0.10;0.10;;;10.50;5.00;;;;;;5076397;28;20044;-71
2022/04/11 07:05:06;;;;;;;0.45;0.45;;;10.50;10.40;;;;;;5075331;28;20094;-71
2022/04/11 07:07:32;;;;;;;0.17;0.17;;;10.50;12.30;;;;;;5075038;28;20068;-71
2022/04/11 07:09:59;;;;;;;0.43;0.35;;;10.50;7.70;;;;;;5075600;28;20056;-71
2022/04/11 07:12:25;;;;;;;0.47;0.30;;;10.50;7.50;;;;;;5075148;28;20037;-72
2022/04/11 07:14:52;;;;;;;0.10;0.10;;;10.60;8.50;;;;;;5075707;28;20040;-72
2022/04/11 07:17:17;;;;;;;0.50;0.50;;;10.50;16.00;;;;;;5075638;28;20555;-72
2022/04/11 07:19:43;;;;;;;0.82;0.47;;;10.50;16.40;;;;;;5076310;28;20111;-72
2022/04/11 07:22:09;;;;;;;0.10;0.10;;;10.40;25.90;;;;;;5074836;28;20053;-71
2022/04/11 07:24:38;;;;;;;0.30;0.30;;;10.30;43.00;;;;;;5075070;28;20511;-71
2022/04/11 07:27:06;;;;;;;0.20;0.20;;;10.30;44.90;;;;;;5074302;28;20170;-70
2022/04/11 07:29:32;;;;;;;0.17;0.17;;;10.30;32.00;;;;;;5075132;28;20123;-70
2022/04/11 07:31:58;;;;;;;0.10;0.10;;;10.30;60.50;;;;;;5074971;28;20098;-70
2022/04/11 07:34:24;;;;;;;0.50;0.50;;;10.30;60.60;;;;;;5073845;28;20048;-71
2022/04/11 07:36:50;;;;;;;0.10;0.10;;;10.30;67.80;;;;;;5075317;28;20046;-70
2022/04/11 07:39:16;;;;;;;0.10;0.10;;;10.30;79.20;;;;;;5071863;28;20052;-69
2022/04/11 07:41:41;;;;;;;0.35;0.35;;;10.30;73.80;;;;;;5072839;28;20509;-71
2022/04/11 07:44:07;;;;;;;0.10;0.10;;;10.30;53.40;;;;;;5074994;28;20043;-71
2022/04/11 07:46:33;;;;;;;0.10;0.10;;;10.40;40.30;;;;;;5074817;28;20040;-70
2022/04/11 07:48:59;;;;;;;0.20;0.20;;;10.30;60.70;;;;;;5075357;28;20036;-71
2022/04/11 07:51:25;;;;;;;0.60;0.60;;;10.40;27.20;;;;;;5071678;28;20047;-70
2022/04/11 07:53:51;;;;;;;0.10;0.10;;;10.40;23.80;;;;;;5074003;28;20036;-71
2022/04/11 07:56:16;;;;;;;0.85;0.85;;;10.40;24.20;;;;;;5074948;28;20398;-72
2022/04/11 07:58:42;;;;;;;0.20;0.20;;;10.50;17.30;;;;;;5074201;28;20136;-70
2022/04/11 08:01:10;;;;;;;0.28;0.28;;;10.40;24.10;;;;;;5074386;28;20123;-70
2022/04/11 08:03:36;;;;;;;0.10;0.10;;;10.40;16.20;;;;;;5066945;28;20036;-69
2022/04/11 08:06:02;;;;;;;0.10;0.10;;;10.50;17.60;;;;;;5075020;28;20153;-69
2022/04/11 08:08:28;;;;;;;0.40;0.40;;;10.50;10.50;;;;;;5075048;28;20514;-69
2022/04/11 08:10:54;;;;;;;3.00;0.68;;;10.60;1.70;;;;;;5075311;28;20040;-69
2022/04/11 08:13:19;;;;;;;0.10;0.10;;;10.70;1.00;;;;;;5074845;28;20060;-69
2022/04/11 08:15:45;;;;;;;0.10;0.10;;;10.70;4.50;;;;;;5074653;28;20514;-69
2022/04/11 08:18:11;;;;;;;0.20;0.20;;;10.70;2.10;;;;;;5074865;28;20055;-69
2022/04/11 08:20:37;;;;;;;0.38;0.38;;;10.70;2.50;;;;;;5074175;28;20515;-70
2022/04/11 08:23:03;;;;;;;0.10;0.10;;;10.80;1.00;;;;;;5075421;28;20036;-69
2022/04/11 08:25:29;;;;;;;0.10;0.10;;;10.80;1.00;;;;;;5074733;28;20086;-69
2022/04/11 08:27:55;;;;;;;0.30;0.30;;;10.80;1.00;;;;;;5075091;28;20036;-69
2022/04/11 08:30:20;;;;;;;0.10;0.10;;;10.80;1.00;;;;;;5075203;28;20560;-69
2022/04/11 08:32:48;;;;;;;0.40;0.40;;;10.90;1.00;;;;;;5075020;28;20032;-69
2022/04/11 08:35:15;;;;;;;0.30;0.30;;;11.00;1.00;;;;;;5074884;28;20119;-69
2022/04/11 08:37:41;;;;;;;9.38;0.52;;;11.00;1.00;;;;;;5074895;28;20094;-69
2022/04/11 08:40:12;;;;;;;1.33;0.60;;;11.00;1.00;;;;;;5075415;28;20044;-69
2022/04/11 08:42:40;;;;;;;2.92;1.52;;;11.10;1.00;;;;;;5074555;28;20118;-69
2022/04/11 08:45:07;;;;;;;0.20;0.20;;;11.10;1.00;;;;;;5074327;28;20078;-69
2022/04/11 08:47:34;;;;;;;1.27;1.17;;;11.20;1.00;;;;;;5074731;28;20048;-69
2022/04/11 08:50:05;;;;;;;0.10;0.10;;;11.20;1.00;;;;;;5075059;28;20042;-69
2022/04/11 08:52:33;;;;;;;0.27;0.27;;;11.30;1.00;;;;;;5075378;28;20086;-69
2022/04/11 08:55:00;;;;;;;0.20;0.20;;;11.20;1.00;;;;;;5074696;28;20040;-70
2022/04/11 08:57:26;;;;;;;7.78;1.75;;;11.20;1.00;;;;;;5074099;28;20032;-70
2022/04/11 08:59:52;;;;;;;0.10;0.10;;;11.20;1.00;;;;;;5074965;28;20040;-69
2022/04/11 09:02:18;;;;;;;2.53;0.85;;;11.20;1.00;;;;;;5074091;28;20075;-69
2022/04/11 09:04:56;;;;;;;0.10;0.10;;;11.20;1.00;;;;;;5074194;28;20067;-69
2022/04/11 09:07:23;;;;;;;0.80;0.63;;;11.20;1.00;;;;;;5074316;28;20040;-69
2022/04/11 09:09:49;;;;;;;0.10;0.10;;;11.20;1.00;;;;;;5074314;28;20037;-69
2022/04/11 09:12:19;;;;;;;0.32;0.32;;;11.30;1.00;;;;;;5074031;28;20495;-69
2022/04/11 09:14:56;;;;;;;0.63;0.63;;;11.20;1.00;;;;;;5073669;28;20033;-69
2022/04/11 09:17:23;;;;;;;0.40;0.40;;;11.30;1.00;;;;;;5074182;28;20075;-69
2022/04/11 09:20:07;;;;;;;0.10;0.10;;;11.30;1.00;;;;;;5074294;28;20527;-69
2022/04/11 09:22:33;;;;;;;0.10;0.10;;;11.30;1.00;;;;;;5075447;28;20479;-69
2022/04/11 09:25:16;;;;;;;0.10;0.10;;;11.30;1.00;;;;;;5074342;28;20067;-70
2022/04/11 09:27:43;;;;;;;0.20;0.20;;;11.30;1.00;;;;;;5073957;28;20051;-69
2022/04/11 09:30:23;;;;;;;0.45;0.45;;;11.30;1.00;;;;;;5074379;28;20111;-69
2022/04/11 09:32:52;;;;;;;0.10;0.10;;;11.30;1.00;;;;;;5078033;28;20037;-69
2022/04/11 09:35:32;;;;;;;0.10;0.10;;;11.20;1.00;;;;;;5077487;28;20040;-69
2022/04/11 09:38:13;;;;;;;0.10;0.10;;;11.10;1.00;;;;;;5078163;28;20041;-69
2022/04/11 09:40:52;;;;;;;1.42;0.82;;;11.10;1.00;;;;;;5077762;28;20036;-69
2022/04/11 09:43:26;;;;;;;0.73;0.73;;;11.10;1.00;;;;;;5077812;28;20089;-69
2022/04/11 09:45:52;;;;;;;0.70;0.65;;;11.10;1.00;;;;;;5077771;28;20063;-69
2022/04/11 09:48:22;;;;;;;0.50;0.50;;;11.10;1.00;;;;;;5077700;28;20040;-69
2022/04/11 09:50:50;;;;;;;0.15;0.15;;;11.10;1.00;;;;;;5077161;28;20032;-69
2022/04/11 09:53:20;;;;;;;0.10;0.10;;;11.20;1.00;;;;;;5077588;28;20064;-69
2022/04/11 09:55:51;;;;;;;0.57;0.57;;;11.20;1.00;;;;;;5077204;28;20186;-70
2022/04/11 09:58:19;;;;;;;0.13;0.13;;;11.30;1.00;;;;;;5077345;28;20049;-69
2022/04/11 10:00:46;;;;;;;0.30;0.30;;;11.40;1.00;;;;;;5077691;28;20036;-69
2022/04/11 10:03:11;;;;;;;0.10;0.10;;;11.40;1.00;;;;;;5077475;28;20045;-70
2022/04/11 10:05:39;;;;;;;0.70;0.57;;;11.40;1.00;;;;;;5077242;28;20067;-69
2022/04/11 10:08:10;;;;;;;0.10;0.10;;;11.40;1.00;;;;;;5077360;28;20131;-69
2022/04/11 10:10:40;;;;;;;0.50;0.50;;;11.30;1.00;;;;;;5077565;28;20108;-69
2022/04/11 10:13:07;;;;;;;0.22;0.22;;;11.40;1.00;;;;;;5077298;28;20158;-69
2022/04/11 10:15:35;;;;;;;0.10;0.10;;;11.30;1.00;;;;;;5077233;28;20113;-69
2022/04/11 10:18:01;;;;;;;0.10;0.10;;;11.30;1.00;;;;;;5077334;28;20040;-69
2022/04/11 10:20:30;;;;;;;0.20;0.20;;;11.40;1.00;;;;;;5076875;28;20094;-70
2022/04/11 10:22:57;;;;;;;0.52;0.32;;;11.40;1.00;;;;;;5077360;28;20119;-69
2022/04/11 10:25:24;;;;;;;0.10;0.10;;;11.30;1.00;;;;;;5076950;28;20041;-69
2022/04/11 10:28:16;;;;;;;0.10;0.10;;;11.30;1.00;;;;;;5077046;28;20502;-69
2022/04/11 10:30:42;;;;;;;0.10;0.10;;;11.40;1.00;;;;;;5077221;28;20067;-69
2022/04/11 10:33:08;;;;;;;1.15;0.32;;;11.40;1.00;;;;;;5077025;28;20041;-69
2022/04/11 10:35:41;;;;;;;0.17;0.17;;;11.40;1.00;;;;;;5076375;28;20044;-69
2022/04/11 10:38:08;;;;;;;0.10;0.10;;;11.50;1.00;;;;;;5076013;28;20048;-69
2022/04/11 10:40:37;;;;;;;0.20;0.20;;;11.50;1.00;;;;;;5075975;28;20051;-70
2022/04/11 10:43:08;;;;;;;0.30;0.30;;;11.50;1.00;;;;;;5070320;28;20051;-69
2022/04/11 10:45:39;;;;;;;;;;;11.50;1.00;;;;;;5059391;28;20044;-69
2022/04/11 10:48:06;;;;;;;0.10;0.10;;;11.60;1.00;;;;;;5062715;28;19936;-72
2022/04/11 10:50:37;;;;;;;0.10;0.10;;;11.60;1.00;;;;;;5075318;28;20495;-70
2022/04/11 10:53:24;;;;;;;0.17;0.17;;;11.70;1.00;;;;;;5074263;28;20240;-69
2022/04/11 10:56:02;;;;;;;0.55;0.55;;;11.60;1.00;;;;;;5060647;28;20037;-70
2022/04/11 10:58:49;;;;;;;0.10;0.10;;;11.60;1.00;;;;;;5074482;28;20036;-69
2022/04/11 11:01:35;;;;;;;0.25;0.25;;;11.50;1.00;;;;;;5075308;28;20116;-69
2022/04/11 11:04:19;;;;;;;0.47;0.40;;;11.50;1.00;;;;;;5072622;28;20032;-69
2022/04/11 11:06:45;;;;;;;0.10;0.10;;;11.50;1.00;;;;;;5074210;28;20059;-69
2022/04/11 11:09:18;;;;;;;0.75;0.75;;;11.50;1.00;;;;;;5075533;28;20071;-69
2022/04/11 11:11:45;;;;;;;1.13;0.65;;;11.70;1.00;;;;;;5075095;28;20044;-70
2022/04/11 11:14:40;;;;;;;0.10;0.10;;;11.70;1.00;;;;;;5074137;28;20458;-69
2022/04/11 11:17:06;;;;;;;0.10;0.10;;;11.60;1.00;;;;;;5074551;28;20040;-69
2022/04/11 11:20:12;;;;;;;0.38;0.38;;;11.60;1.00;;;;;;5074078;28;20074;-69
2022/04/11 11:23:13;;;;;;;0.10;0.10;;;11.60;1.00;;;;;;5074061;28;20125;-70
2022/04/11 11:25:40;;;;;;;0.17;0.17;;;11.60;1.00;;;;;;5054714;28;20490;-70
2022/04/11 11:28:06;;;;;;;0.55;0.55;;;11.60;1.00;;;;;;5074762;28;20573;-70
2022/04/11 11:30:32;;;;;;;0.10;0.10;;;11.60;1.00;;;;;;5073444;28;20036;-70
2022/04/11 11:33:01;;;;;;;0.10;0.10;;;11.50;1.00;;;;;;5073108;28;20111;-70
2022/04/11 11:35:28;;;;;;;0.10;0.10;;;11.60;1.00;;;;;;5073705;28;20043;-70
2022/04/11 11:38:06;;;;;;;0.35;0.35;;;11.60;1.00;;;;;;5074792;28;20107;-70
2022/04/11 11:40:32;;;;;;;0.28;0.28;;;11.60;1.00;;;;;;5075664;28;20037;-70
2022/04/11 11:42:58;;;;;;;0.30;0.30;;;11.70;1.00;;;;;;5075442;28;20120;-70
2022/04/11 11:45:27;;;;;;;0.43;0.30;;;11.80;1.00;;;;;;5075497;28;20040;-70
2022/04/11 11:47:53;;;;;;;0.25;0.25;;;11.70;1.00;;;;;;5075122;28;20045;-70
2022/04/11 11:50:19;;;;;;;1.88;0.77;;;11.70;1.00;;;;;;5075167;28;20048;-70
2022/04/11 11:52:59;;;;;;;0.80;0.60;;;11.70;1.00;;;;;;5075046;28;20402;-70
2022/04/11 11:55:25;;;;;;;0.10;0.10;;;11.70;1.00;;;;;;5074560;28;20041;-70
2022/04/11 11:58:06;;;;;;;0.22;0.22;;;11.70;1.00;;;;;;5075723;28;20044;-70
2022/04/11 12:00:35;;;;;;;;;;;11.60;1.00;;;;;;5074847;28;20067;-70
2022/04/11 12:05:45;;;;;;;1.02;0.95;;;11.70;1.00;;;;;;5074996;28;20039;-70
2022/04/11 12:08:14;;;;;;;0.40;0.40;;;11.70;1.00;;;;;;5075329;28;20040;-70
2022/04/11 12:10:47;;;;;;;0.10;0.10;;;11.80;1.00;;;;;;5075348;28;20483;-70
2022/04/11 12:13:31;;;;;;;3.03;0.45;;;11.80;1.00;;;;;;5074856;28;20506;-70
2022/04/11 12:16:08;;;;;;;0.38;0.38;;;11.70;1.00;;;;;;5074620;28;20161;-70
2022/04/11 12:18:54;;;;;;;0.10;0.10;;;11.70;1.00;;;;;;5069924;28;20056;-70
2022/04/11 12:21:34;;;;;;;0.10;0.10;;;11.80;1.00;;;;;;5065264;28;20052;-70
2022/04/11 12:24:05;;;;;;;0.10;0.10;;;11.90;1.00;;;;;;5074447;28;20032;-70
2022/04/11 12:26:36;;;;;;;1.08;1.05;;;11.90;1.00;;;;;;5072926;28;20125;-70
2022/04/11 12:29:10;;;;;;;0.10;0.10;;;12.00;1.00;;;;;;5074604;28;20037;-70
2022/04/11 12:31:39;;;;;;;1.75;0.40;;;12.10;1.00;;;;;;5074384;28;20125;-70
2022/04/11 12:34:11;;;;;;;0.10;0.10;;;12.10;1.00;;;;;;5073887;28;20029;-70
2022/04/11 12:36:37;;;;;;;0.10;0.10;;;12.00;1.00;;;;;;5073869;28;20037;-70
2022/04/11 12:39:13;;;;;;;0.43;0.43;;;12.00;1.00;;;;;;5053989;28;20395;-70
2022/04/11 12:41:44;;;;;;;0.30;0.30;;;11.80;1.00;;;;;;5054201;28;20560;-71
2022/04/11 12:44:12;;;;;;;0.10;0.10;;;11.90;1.00;;;;;;5066897;28;20060;-70
2022/04/11 12:46:41;;;;;;;0.20;0.20;;;12.10;1.00;;;;;;5073448;28;20082;-70
2022/04/11 12:49:08;;;;;;;0.50;0.50;;;12.20;1.00;;;;;;5073596;28;20043;-69
2022/04/11 12:51:34;;;;;;;1.27;1.17;;;12.20;1.00;;;;;;5073452;28;20037;-69
2022/04/11 12:54:02;;;;;;;0.10;0.10;;;12.00;1.00;;;;;;5073347;28;20036;-69
2022/04/11 12:56:39;;;;;;;0.20;0.20;;;12.20;1.00;;;;;;5074270;28;20040;-69
2022/04/11 12:59:06;;;;;;;0.17;0.17;;;12.30;1.00;;;;;;5072994;28;20399;-69
2022/04/11 13:01:51;;;;;;;0.10;0.10;;;12.40;1.00;;;;;;5074308;28;20131;-69
2022/04/11 13:04:17;;;;;;;0.30;0.20;;;12.50;1.00;;;;;;5073107;28;20033;-69